Time;durP1;ratioP1;P1;durP2;ratioP2;P2;SDS_P1;SDS_P2;PMS_P1;PMS_P2;Temp;Humidity;BMP_temperature;BMP_pressure;BME280_temperature;BME280_humidity;BME280_pressure;Samples;Min_cycle;Max_cycle;Signal;HPM_P1;HPM_P2
2022/01/25 00:44:58;;;;;;;;;;;1.80;99.90;;;;;;5060844;23;19921;-94
2022/01/25 00:48:09;;;;;;;;;;;1.70;99.90;;;;;;5008377;28;19910;-96
2022/01/25 00:53:57;;;;;;;;;;;1.70;99.90;;;;;;4994969;28;19993;-84
2022/01/25 01:47:40;;;;;;;;;;;1.60;99.90;;;;;;4962761;28;19950;-86
2022/01/25 01:59:01;;;;;;;;;;;1.60;99.90;;;;;;4389993;23;19921;-91
2022/01/25 02:01:36;;;;;;;;;;;1.60;99.90;;;;;;4993140;28;19978;-94
2022/01/25 02:09:52;;;;;;;;;;;1.60;99.90;;;;;;4998425;28;19947;-91
2022/01/25 02:26:31;;;;;;;;;;;1.60;99.90;;;;;;5012188;28;19969;-93
2022/01/25 02:29:31;;;;;;;;;;;1.60;99.90;;;;;;5010031;28;20040;-87
2022/01/25 02:32:04;;;;;;;;;;;1.60;99.90;;;;;;4998067;28;19910;-93
2022/01/25 02:34:35;;;;;;;;;;;1.50;99.90;;;;;;5013626;28;19922;-88
2022/01/25 02:37:16;;;;;;;;;;;1.60;99.90;;;;;;5013351;28;19933;-91
2022/01/25 02:40:08;;;;;;;;;;;1.50;99.90;;;;;;5017042;28;19978;-95
2022/01/25 02:42:42;;;;;;;;;;;1.60;99.90;;;;;;5013909;28;19910;-88
2022/01/25 02:45:18;;;;;;;;;;;1.60;99.90;;;;;;5016061;28;19922;-88
2022/01/25 02:53:33;;;;;;;;;;;1.50;99.90;;;;;;4997472;28;19922;-87
2022/01/25 02:56:10;;;;;;;;;;;1.60;99.90;;;;;;5001544;28;19914;-93
2022/01/25 02:58:50;;;;;;;;;;;1.50;99.90;;;;;;4989009;28;19917;-94
2022/01/25 03:01:20;;;;;;;;;;;1.50;99.90;;;;;;4999084;28;19938;-90
2022/01/25 03:06:50;;;;;;;;;;;1.50;99.90;;;;;;5015953;28;19916;-90
2022/01/25 03:09:35;;;;;;;;;;;1.50;99.90;;;;;;5007384;28;19937;-84
2022/01/25 03:12:34;;;;;;;;;;;1.50;99.90;;;;;;5020908;28;19990;-85
2022/01/25 03:15:25;;;;;;;;;;;1.60;99.90;;;;;;5019121;28;19993;-94
2022/01/25 03:17:58;;;;;;;;;;;1.50;99.90;;;;;;5011942;28;19926;-87
2022/01/25 03:26:18;;;;;;;;;;;1.50;99.90;;;;;;5093977;27;2349833;-85
2022/01/25 03:28:51;;;;;;;;;;;1.50;99.90;;;;;;5148640;28;19924;-84
2022/01/25 03:31:25;;;;;;;;;;;1.50;99.90;;;;;;5162998;27;19923;-85
2022/01/25 03:33:56;;;;;;;;;;;1.50;99.90;;;;;;5149884;27;19969;-83
2022/01/25 03:36:26;;;;;;;;;;;1.50;99.90;;;;;;5128392;28;19965;-88
2022/01/25 03:38:59;;;;;;;;;;;1.50;99.90;;;;;;5154252;27;20385;-83
2022/01/25 03:41:35;;;;;;;;;;;1.50;99.90;;;;;;5146750;28;19983;-81
2022/01/25 03:44:20;;;;;;;;;;;1.50;99.90;;;;;;5150486;28;19946;-80
2022/01/25 03:49:52;;;;;;;;;;;1.50;99.90;;;;;;5143145;28;19919;-82
2022/01/25 03:52:34;;;;;;;;;;;1.50;99.90;;;;;;5159684;27;19945;-82
2022/01/25 03:55:10;;;;;;;;;;;1.50;99.90;;;;;;5146683;28;19932;-81
2022/01/25 03:57:46;;;;;;;;;;;1.50;99.90;;;;;;5155416;27;19935;-81
2022/01/25 04:00:38;;;;;;;;;;;1.50;99.90;;;;;;5156457;27;19950;-83
2022/01/25 04:03:14;;;;;;;;;;;1.50;99.90;;;;;;5143304;28;19923;-81
2022/01/25 04:05:51;;;;;;;;;;;1.50;99.90;;;;;;5132097;28;19991;-81
2022/01/25 04:08:20;;;;;;;;;;;1.50;99.90;;;;;;5152355;27;19958;-81
2022/01/25 04:10:55;;;;;;;;;;;1.50;99.90;;;;;;5151423;27;19911;-81
2022/01/25 04:13:30;;;;;;;;;;;1.50;99.90;;;;;;5135231;28;19932;-82
2022/01/25 04:18:58;;;;;;;;;;;1.40;99.90;;;;;;5150569;27;19920;-84
2022/01/25 04:21:45;;;;;;;;;;;1.40;99.90;;;;;;5145691;27;19949;-82
2022/01/25 04:27:02;;;;;;;;;;;1.40;99.90;;;;;;5168697;27;19923;-83
2022/01/25 04:29:43;;;;;;;;;;;1.30;99.90;;;;;;5153240;27;19920;-84
2022/01/25 04:32:13;;;;;;;;;;;1.30;99.90;;;;;;5152943;27;19930;-85
2022/01/25 04:54:09;;;;;;;;;;;1.40;99.90;;;;;;5108951;28;19912;-84
2022/01/25 04:56:43;;;;;;;;;;;1.30;99.90;;;;;;5133839;28;19908;-82
2022/01/25 04:59:21;;;;;;;;;;;1.30;99.90;;;;;;5136055;27;20264;-84
2022/01/25 05:02:02;;;;;;;;;;;1.30;99.90;;;;;;5135441;28;19946;-87
2022/01/25 05:04:37;;;;;;;;;;;1.30;99.90;;;;;;5121477;27;19941;-84
2022/01/25 05:07:17;;;;;;;;;;;1.40;99.90;;;;;;5141524;27;19930;-83
2022/01/25 05:09:47;;;;;;;;;;;1.40;99.90;;;;;;5138880;27;19928;-80
2022/01/25 05:12:16;;;;;;;;;;;1.40;99.90;;;;;;5135968;27;19966;-84
2022/01/25 05:14:58;;;;;;;;;;;1.30;99.90;;;;;;5136696;28;19940;-84
2022/01/25 05:17:37;;;;;;;;;;;1.40;99.90;;;;;;5122395;28;19955;-81
2022/01/25 05:22:50;;;;;;;;;;;1.40;99.90;;;;;;5128086;28;19915;-83
2022/01/25 05:25:27;;;;;;;;;;;1.40;99.90;;;;;;5137107;28;19912;-83
2022/01/25 05:27:58;;;;;;;;;;;1.40;99.90;;;;;;5144966;27;19955;-81
2022/01/25 05:30:28;;;;;;;;;;;1.40;99.90;;;;;;5143638;27;19908;-82
2022/01/25 05:33:07;;;;;;;;;;;1.30;99.90;;;;;;5130346;27;19981;-85
2022/01/25 05:35:38;;;;;;;;;;;1.30;99.90;;;;;;5129352;27;20452;-85
2022/01/25 05:38:13;;;;;;;;;;;1.30;99.90;;;;;;5101654;27;19930;-83
2022/01/25 05:40:48;;;;;;;;;;;1.40;99.90;;;;;;5129810;28;19923;-86
2022/01/25 05:46:12;;;;;;;;;;;1.30;99.90;;;;;;5140110;27;19907;-89
2022/01/25 05:48:49;;;;;;;;;;;1.30;99.90;;;;;;5078949;22;19910;-87
2022/01/25 05:51:22;;;;;;;;;;;1.30;99.90;;;;;;5020643;28;19909;-83
2022/01/25 05:53:57;;;;;;;;;;;1.30;99.90;;;;;;5275438;23;19914;-84
2022/01/25 05:56:25;;;;;;;;;;;1.30;99.90;;;;;;5031794;28;19953;-82
2022/01/25 05:58:53;;;;;;;;;;;1.30;99.90;;;;;;5005071;28;20041;-80
2022/01/25 06:01:20;;;;;;;;;;;1.40;99.90;;;;;;5016678;28;19930;-92
2022/01/25 06:03:49;;;;;;;;;;;1.20;99.90;;;;;;5014858;28;19937;-82
2022/01/25 06:06:17;;;;;;;;;;;1.30;99.90;;;;;;5017056;28;19993;-89
2022/01/25 06:08:46;;;;;;;;;;;1.20;99.90;;;;;;5037478;28;19916;-82
2022/01/25 06:11:20;;;;;;;;;;;1.20;99.90;;;;;;5034781;28;19988;-80
2022/01/25 06:13:49;;;;;;;;;;;1.20;99.90;;;;;;5034967;28;19926;-87
2022/01/25 06:16:19;;;;;;;;;;;1.20;99.90;;;;;;5661533;23;19913;-80
2022/01/25 06:18:47;;;;;;;;;;;1.20;99.90;;;;;;4995942;28;19952;-83
2022/01/25 06:21:36;;;;;;;;;;;;;;;;;;;;;
2022/01/25 06:36:54;;;;;;;;;;;1.20;99.90;;;;;;4976375;28;19934;-82
2022/01/25 07:31:28;;;;;;;;;;;1.50;99.90;;;;;;5033478;28;19933;-86
2022/01/25 07:40:39;;;;;;;;;;;1.50;99.90;;;;;;5004741;28;19937;-83
2022/01/25 08:03:09;;;;;;;;;;;1.50;99.90;;;;;;1482779;26;19983;-82
2022/01/25 08:05:38;;;;;;;;;;;1.50;99.90;;;;;;5024882;28;20407;-83
2022/01/25 08:08:18;;;;;;;;;;;1.40;99.90;;;;;;5031471;28;19933;-82
2022/01/25 08:10:52;;;;;;;;;;;1.40;99.90;;;;;;5026178;28;19929;-81
2022/01/25 08:13:24;;;;;;;;;;;1.50;99.90;;;;;;5032914;28;20016;-83
2022/01/25 08:15:56;;;;;;;;;;;1.40;99.90;;;;;;5026326;28;19960;-81
2022/01/25 08:18:29;;;;;;;;;;;1.40;99.90;;;;;;5029665;28;19940;-82
2022/01/25 08:21:05;;;;;;;;;;;1.40;99.90;;;;;;5032538;28;20306;-83
2022/01/25 08:26:27;;;;;;;;;;;1.40;99.90;;;;;;5030485;28;20374;-86
2022/01/25 08:28:54;;;;;;;;;;;1.40;99.90;;;;;;5031487;28;19937;-90
2022/01/25 08:31:32;;;;;;;;;;;1.40;99.90;;;;;;5033986;28;20012;-87
2022/01/25 08:34:04;;;;;;;;;;;1.40;99.90;;;;;;5037870;28;20019;-85
2022/01/25 09:36:12;;;;;;;;;;;1.40;99.90;;;;;;5426700;22;19925;-86
2022/01/25 09:49:55;;;;;;;;;;;1.30;99.90;;;;;;5029016;28;19925;-83
2022/01/25 09:52:24;;;;;;;;;;;1.40;99.90;;;;;;5014159;28;19952;-83
2022/01/25 09:54:57;;;;;;;;;;;1.40;99.90;;;;;;5028554;28;19937;-92
2022/01/25 09:57:35;;;;;;;;;;;1.40;99.90;;;;;;5031610;28;19967;-93
2022/01/25 10:00:03;;;;;;;;;;;1.40;99.90;;;;;;5006758;28;20024;-88
2022/01/25 10:08:41;;;;;;;;;;;1.40;99.90;;;;;;5016200;28;19973;-85
2022/01/25 10:11:23;;;;;;;;;;;1.40;99.90;;;;;;5017884;28;19936;-83
2022/01/25 10:13:56;;;;;;;;;;;1.40;99.90;;;;;;4999514;28;19934;-82
2022/01/25 10:16:33;;;;;;;;;;;1.40;99.90;;;;;;5011031;28;19925;-85
2022/01/25 10:19:00;;;;;;;;;;;1.40;99.90;;;;;;5009345;28;19929;-83
2022/01/25 10:21:51;;;;;;;;;;;0.90;99.90;;;;;;5014663;28;19925;-80
2022/01/25 10:24:19;;;;;;;;;;;0.50;99.90;;;;;;5014670;28;19922;-85
2022/01/25 10:26:52;;;;;;;;;;;0.30;99.90;;;;;;5013567;28;19931;-88
2022/01/25 10:29:30;;;;;;;;;;;0.60;99.90;;;;;;5022715;28;19929;-89
2022/01/25 10:31:59;;;;;;;;;;;1.10;99.90;;;;;;5012845;28;20480;-90
2022/01/25 10:34:28;;;;;;;;;;;1.30;99.90;;;;;;5015150;28;19926;-82
2022/01/25 10:36:57;;;;;;;;;;;1.50;99.90;;;;;;4986648;28;20024;-84
2022/01/25 10:45:39;;;;;;;;;;;1.70;99.90;;;;;;5011651;28;19948;-83
2022/01/25 10:48:31;;;;;;;;;;;1.70;99.90;;;;;;5004693;28;19930;-85
2022/01/25 10:51:06;;;;;;;;;;;1.70;99.90;;;;;;5005211;28;20080;-83
2022/01/25 10:56:28;;;;;;;;;;;1.70;99.90;;;;;;5007287;28;19968;-83
2022/01/25 10:59:05;;;;;;;;;;;1.80;99.90;;;;;;5017098;28;19925;-84
2022/01/25 11:02:05;;;;;;;;;;;1.70;99.90;;;;;;5005063;28;19934;-84
2022/01/25 11:16:06;;;;;;;;;;;1.80;99.90;;;;;;5111527;22;19964;-85
2022/01/25 11:18:44;;;;;;;;;;;1.80;99.90;;;;;;5048703;28;19929;-90
2022/01/25 11:24:24;;;;;;;;;;;1.80;99.90;;;;;;5058130;22;19917;-91
2022/01/25 11:27:04;;;;;;;;;;;1.50;99.90;;;;;;4994950;28;19934;-88
2022/01/25 11:29:31;;;;;;;;;;;1.10;99.90;;;;;;4987305;28;19972;-81
2022/01/25 11:34:35;;;;;;;;;;;1.00;99.90;;;;;;4979258;28;20016;-82
2022/01/25 11:37:04;;;;;;;;;;;1.10;99.90;;;;;;4991200;28;20011;-85
2022/01/25 11:39:32;;;;;;;;;;;1.10;99.90;;;;;;4988257;28;19933;-83
2022/01/25 11:42:04;;;;;;;;;;;1.00;99.90;;;;;;4982931;28;19980;-83
2022/01/25 11:44:31;;;;;;;;;;;1.10;99.90;;;;;;4942057;28;20293;-80
2022/01/25 11:46:59;;;;;;;;;;;1.10;99.90;;;;;;4977959;28;19926;-79
2022/01/25 11:49:26;;;;;;;;;;;1.10;99.90;;;;;;4964753;28;20024;-80
2022/01/25 11:52:12;;;;;;;;;;;1.00;99.90;;;;;;4970782;28;19988;-80
2022/01/25 11:54:40;;;;;;;;;;;1.10;99.90;;;;;;4959076;28;20403;-81
2022/01/25 11:57:11;;;;;;;;;;;1.00;99.90;;;;;;4965607;28;20299;-81
2022/01/25 11:59:38;;;;;;;;;;;1.00;99.90;;;;;;4960323;28;20400;-80
2022/01/25 12:02:06;;;;;;;;;;;1.20;99.90;;;;;;4966802;28;19937;-80
2022/01/25 12:04:33;;;;;;;;;;;1.10;99.90;;;;;;4958367;28;20045;-84
2022/01/25 12:07:08;;;;;;;;;;;1.10;99.90;;;;;;4974594;28;19965;-83
2022/01/25 12:09:45;;;;;;;;;;;1.20;99.90;;;;;;4977476;28;19926;-82
2022/01/25 12:12:13;;;;;;;;;;;1.20;99.90;;;;;;4970994;28;19938;-83
2022/01/25 12:14:45;;;;;;;;;;;1.20;99.90;;;;;;4969023;28;20388;-82
2022/01/25 12:17:13;;;;;;;;;;;1.30;99.90;;;;;;4968602;28;19933;-81
2022/01/25 12:19:44;;;;;;;;;;;1.20;99.90;;;;;;4970294;28;20312;-83
2022/01/25 12:22:14;;;;;;;;;;;1.20;99.90;;;;;;4976043;28;20013;-84
2022/01/25 12:25:07;;;;;;;;;;;1.30;99.90;;;;;;4970001;28;19977;-83
2022/01/25 12:27:50;;;;;;;;;;;1.30;99.90;;;;;;4977583;28;19926;-83
2022/01/25 12:30:21;;;;;;;;;;;1.30;99.90;;;;;;4975124;28;19926;-83
2022/01/25 12:32:50;;;;;;;;;;;1.20;99.90;;;;;;4970483;28;20435;-88
2022/01/25 12:35:18;;;;;;;;;;;1.20;99.90;;;;;;4967120;28;20381;-85
2022/01/25 12:37:56;;;;;;;;;;;0.90;99.90;;;;;;4969371;28;20024;-82
2022/01/25 12:40:28;;;;;;;;;;;0.90;99.90;;;;;;4968758;28;19937;-81
2022/01/25 12:42:57;;;;;;;;;;;1.30;99.90;;;;;;4976415;28;20005;-83
2022/01/25 12:45:26;;;;;;;;;;;1.40;99.90;;;;;;4966924;28;20304;-83
2022/01/25 12:47:54;;;;;;;;;;;1.50;99.90;;;;;;4969223;28;19926;-84
2022/01/25 12:50:21;;;;;;;;;;;1.50;99.90;;;;;;4964258;28;19945;-83
2022/01/25 12:52:48;;;;;;;;;;;1.60;99.90;;;;;;4956728;28;19953;-90
2022/01/25 12:55:16;;;;;;;;;;;1.60;99.90;;;;;;4964936;28;19992;-82
2022/01/25 12:57:46;;;;;;;;;;;1.50;99.90;;;;;;4970557;28;19953;-83
2022/01/25 13:00:15;;;;;;;;;;;1.40;99.90;;;;;;4972533;28;20383;-82
2022/01/25 13:02:42;;;;;;;;;;;1.40;99.90;;;;;;4968649;28;20072;-83
2022/01/25 13:05:16;;;;;;;;;;;1.40;99.90;;;;;;4967438;28;19930;-82
2022/01/25 13:07:43;;;;;;;;;;;1.50;99.90;;;;;;4964292;28;20068;-85
2022/01/25 13:10:12;;;;;;;;;;;1.50;99.90;;;;;;4978011;28;19949;-84
2022/01/25 13:12:55;;;;;;;;;;;1.60;99.90;;;;;;4971091;28;19926;-80
2022/01/25 13:15:39;;;;;;;;;;;1.60;99.90;;;;;;4962723;28;20024;-80
2022/01/25 13:18:10;;;;;;;;;;;1.60;99.90;;;;;;4962446;28;20090;-79
2022/01/25 13:20:38;;;;;;;;;;;1.60;99.90;;;;;;4963853;28;20190;-80
2022/01/25 13:23:05;;;;;;;;;;;1.60;99.90;;;;;;4959800;28;19926;-80
2022/01/25 13:25:45;;;;;;;;;;;1.60;99.90;;;;;;4944436;28;20036;-80
2022/01/25 13:28:31;;;;;;;;;;;1.40;99.90;;;;;;4968659;28;20009;-80
2022/01/25 13:30:59;;;;;;;;;;;1.50;99.90;;;;;;4970980;28;20323;-80
2022/01/25 13:33:28;;;;;;;;;;;1.50;99.90;;;;;;4952189;28;19961;-81
2022/01/25 13:35:56;;;;;;;;;;;1.60;99.90;;;;;;4962009;28;19932;-81
2022/01/25 13:38:25;;;;;;;;;;;1.60;99.90;;;;;;4961732;28;19941;-83
2022/01/25 13:40:57;;;;;;;;;;;1.60;99.90;;;;;;4966700;28;19926;-81
2022/01/25 13:46:15;;;;;;;;;;;1.40;99.90;;;;;;4960073;28;19982;-87
2022/01/25 13:48:42;;;;;;;;;;;1.40;99.90;;;;;;4960726;28;19930;-82
2022/01/25 13:51:11;;;;;;;;;;;1.40;99.90;;;;;;4958483;28;19933;-82
2022/01/25 13:53:38;;;;;;;;;;;1.50;99.90;;;;;;4961412;28;19934;-82
2022/01/25 13:56:06;;;;;;;;;;;1.60;99.90;;;;;;4965254;28;19926;-84
2022/01/25 13:58:34;;;;;;;;;;;1.90;99.90;;;;;;4969285;28;19927;-81
2022/01/25 14:01:03;;;;;;;;;;;1.90;99.90;;;;;;4965828;28;20018;-84
2022/01/25 14:03:33;;;;;;;;;;;2.40;99.90;;;;;;4961631;28;19940;-81
2022/01/25 14:06:00;;;;;;;;;;;2.70;99.90;;;;;;4968754;28;20028;-85
2022/01/25 14:08:34;;;;;;;;;;;3.10;99.90;;;;;;4947880;28;19941;-83
2022/01/25 14:11:05;;;;;;;;;;;3.30;99.90;;;;;;4965146;28;19933;-83
2022/01/25 14:22:11;;;;;;;;;;;3.60;99.90;;;;;;4947509;28;19941;-82
2022/01/25 14:24:39;;;;;;;;;;;3.70;99.90;;;;;;4963593;28;19976;-82
2022/01/25 14:27:17;;;;;;;;;;;2.80;99.90;;;;;;4969637;28;19926;-83
2022/01/25 14:29:44;;;;;;;;;;;2.30;99.90;;;;;;4967523;28;20071;-82
2022/01/25 14:32:11;;;;;;;;;;;2.60;99.90;;;;;;4954508;28;20064;-83
2022/01/25 14:34:40;;;;;;;;;;;2.60;99.90;;;;;;4965977;28;19936;-81
2022/01/25 14:37:11;;;;;;;;;;;3.00;99.90;;;;;;4970697;28;19930;-83
2022/01/25 14:39:41;;;;;;;;;;;2.90;99.90;;;;;;4967119;28;19941;-83
2022/01/25 14:42:10;;;;;;;;;;;3.00;99.90;;;;;;4971014;28;19930;-82
2022/01/25 14:44:41;;;;;;;;;;;3.20;99.90;;;;;;4961759;28;20281;-83
2022/01/25 14:47:12;;;;;;;;;;;3.60;99.90;;;;;;4970686;28;19941;-84
2022/01/25 14:49:47;;;;;;;;;;;3.80;99.90;;;;;;4965582;28;19926;-84
2022/01/25 14:52:19;;;;;;;;;;;3.90;99.90;;;;;;4966373;28;20388;-83
2022/01/25 14:54:47;;;;;;;;;;;3.70;99.90;;;;;;4964947;28;20322;-83
2022/01/25 14:57:18;;;;;;;;;;;3.20;99.90;;;;;;4970737;28;20008;-82
2022/01/25 14:59:47;;;;;;;;;;;3.30;99.90;;;;;;4969307;28;19938;-82
2022/01/25 15:02:16;;;;;;;;;;;3.10;99.90;;;;;;4964086;28;20420;-83
2022/01/25 15:04:44;;;;;;;;;;;3.60;99.90;;;;;;4957240;28;20387;-84
2022/01/25 15:07:14;;;;;;;;;;;3.70;99.90;;;;;;4965452;28;20017;-83
2022/01/25 15:09:48;;;;;;;;;;;3.40;99.90;;;;;;4971387;28;20021;-83
2022/01/25 15:12:16;;;;;;;;;;;3.70;99.90;;;;;;4977415;28;20672;-81
2022/01/25 15:14:52;;;;;;;;;;;4.10;99.90;;;;;;4968437;28;20418;-83
2022/01/25 15:17:22;;;;;;;;;;;4.40;99.90;;;;;;4966180;28;19932;-81
2022/01/25 15:19:52;;;;;;;;;;;5.00;99.90;;;;;;4962607;28;19985;-83
2022/01/25 15:22:29;;;;;;;;;;;4.30;99.90;;;;;;4964516;28;19934;-82
2022/01/25 15:24:57;;;;;;;;;;;4.20;99.90;;;;;;4965155;28;19958;-82
2022/01/25 15:27:28;;;;;;;;;;;4.00;99.90;;;;;;4973727;28;19926;-83
2022/01/25 15:29:55;;;;;;;;;;;3.60;99.90;;;;;;4970750;28;20449;-84
2022/01/25 15:32:53;;;;;;;;;;;3.10;99.90;;;;;;4981432;28;19916;-82
2022/01/25 18:27:55;;;;;;;;;;;2.70;99.90;;;;;;6110249;23;19921;-82
2022/01/25 18:55:24;;;;;;;;;;;2.60;99.90;;;;;;5256654;23;20418;-82
2022/01/25 18:57:53;;;;;;;;;;;2.70;99.90;;;;;;5022891;28;19925;-82
2022/01/25 19:53:48;;;;;;;;;;;2.40;99.90;;;;;;4995780;28;19930;-83
2022/01/25 20:27:49;;;;;;;;;;;2.20;99.90;;;;;;5044308;28;20391;-81
2022/01/25 20:30:46;;;;;;;;;;;2.20;99.90;;;;;;5047019;28;20016;-83
2022/01/25 20:36:23;;;;;;;;;;;2.20;99.90;;;;;;5046909;28;19947;-83
2022/01/25 20:41:45;;;;;;;;;;;2.10;99.90;;;;;;5043555;28;19959;-82
2022/01/25 20:47:06;;;;;;;;;;;2.10;99.90;;;;;;5038807;28;20425;-82
2022/01/25 20:49:39;;;;;;;;;;;2.10;99.90;;;;;;5024929;28;20012;-83
2022/01/25 20:52:11;;;;;;;;;;;2.10;99.90;;;;;;5031013;28;19926;-82
2022/01/25 20:57:40;;;;;;;;;;;2.10;99.90;;;;;;5041890;28;19932;-83
2022/01/25 21:00:13;;;;;;;;;;;2.10;99.90;;;;;;5024855;28;19971;-83
2022/01/25 21:02:52;;;;;;;;;;;2.00;99.90;;;;;;5021089;28;19925;-84
2022/01/25 21:08:16;;;;;;;;;;;2.00;99.90;;;;;;5040527;28;19940;-83
2022/01/25 21:10:58;;;;;;;;;;;2.00;99.90;;;;;;5053249;28;19925;-83
2022/01/25 21:13:53;;;;;;;;;;;2.00;99.90;;;;;;5048889;28;19931;-83
2022/01/25 21:16:24;;;;;;;;;;;2.00;99.90;;;;;;5058500;28;19992;-86
2022/01/25 21:18:57;;;;;;;;;;;2.00;99.90;;;;;;5030279;28;19979;-83
2022/01/25 21:21:26;;;;;;;;;;;2.00;99.90;;;;;;5030744;28;19925;-83
2022/01/25 21:26:48;;;;;;;;;;;2.00;99.90;;;;;;5038592;28;19921;-83
2022/01/25 21:29:20;;;;;;;;;;;2.00;99.90;;;;;;5046709;28;19931;-83
2022/01/25 21:31:49;;;;;;;;;;;1.90;99.90;;;;;;5035031;28;19924;-83
2022/01/25 21:34:23;;;;;;;;;;;1.90;99.90;;;;;;5044312;28;19925;-84
2022/01/25 21:39:42;;;;;;;;;;;1.90;99.90;;;;;;5026992;28;19932;-83
2022/01/25 21:42:18;;;;;;;;;;;1.80;99.90;;;;;;5050734;28;19975;-83
2022/01/25 21:44:48;;;;;;;;;;;1.90;99.90;;;;;;5037606;28;19925;-83
2022/01/25 21:47:18;;;;;;;;;;;1.90;99.90;;;;;;5042884;28;19931;-82
2022/01/25 21:49:49;;;;;;;;;;;1.90;99.90;;;;;;5047982;28;19925;-83
2022/01/25 21:52:18;;;;;;;;;;;1.80;99.90;;;;;;5028896;28;19948;-85
2022/01/25 21:54:50;;;;;;;;;;;1.80;99.90;;;;;;5034794;28;19925;-86
2022/01/25 21:57:24;;;;;;;;;;;1.80;99.90;;;;;;5042055;28;20001;-83
2022/01/25 21:59:53;;;;;;;;;;;1.80;99.90;;;;;;5024055;28;19925;-83
2022/01/25 22:02:27;;;;;;;;;;;1.80;99.90;;;;;;5046179;28;19925;-83
2022/01/25 22:05:04;;;;;;;;;;;1.70;99.90;;;;;;5050016;28;19931;-83
2022/01/25 22:07:33;;;;;;;;;;;1.80;99.90;;;;;;5022999;28;19925;-86
2022/01/25 22:10:05;;;;;;;;;;;1.80;99.90;;;;;;5042097;28;20006;-83
2022/01/25 22:12:43;;;;;;;;;;;1.80;99.90;;;;;;5041842;28;19960;-83
2022/01/25 22:15:12;;;;;;;;;;;1.70;99.90;;;;;;5042408;28;20299;-83
2022/01/25 22:17:41;;;;;;;;;;;1.80;99.90;;;;;;5039934;28;19987;-82
2022/01/25 22:20:11;;;;;;;;;;;1.70;99.90;;;;;;5040547;28;19929;-83
2022/01/25 22:22:39;;;;;;;;;;;1.80;99.90;;;;;;5040865;28;19925;-83
2022/01/25 22:25:16;;;;;;;;;;;1.70;99.90;;;;;;5039595;28;19963;-86
2022/01/25 22:27:48;;;;;;;;;;;1.70;99.90;;;;;;5041621;28;19925;-84
2022/01/25 22:30:17;;;;;;;;;;;1.70;99.90;;;;;;5040432;28;19949;-83
2022/01/25 22:32:47;;;;;;;;;;;1.70;99.90;;;;;;5043460;28;20283;-83
2022/01/25 22:35:17;;;;;;;;;;;1.80;99.90;;;;;;5044724;28;19925;-86
2022/01/25 22:37:48;;;;;;;;;;;1.70;99.90;;;;;;5051908;28;19924;-83
2022/01/25 22:40:19;;;;;;;;;;;1.60;99.90;;;;;;5049923;28;20381;-85
2022/01/25 22:42:50;;;;;;;;;;;1.70;99.90;;;;;;5029706;28;19933;-83
2022/01/25 22:45:23;;;;;;;;;;;1.70;99.90;;;;;;5054333;28;20357;-83
2022/01/25 22:47:58;;;;;;;;;;;1.60;99.90;;;;;;5008668;28;20007;-83
2022/01/25 22:50:26;;;;;;;;;;;1.60;99.90;;;;;;5024151;28;20027;-84
2022/01/25 22:52:56;;;;;;;;;;;1.60;99.90;;;;;;5043792;28;19925;-83
2022/01/25 22:55:24;;;;;;;;;;;1.70;99.90;;;;;;5025435;28;20003;-85
2022/01/25 22:57:54;;;;;;;;;;;1.60;99.90;;;;;;5040656;28;19996;-84
2022/01/25 23:00:45;;;;;;;;;;;1.60;99.90;;;;;;5045015;28;19996;-85
2022/01/25 23:03:14;;;;;;;;;;;1.60;99.90;;;;;;5027195;28;19925;-83
2022/01/25 23:05:48;;;;;;;;;;;1.60;99.90;;;;;;5042980;28;19932;-83
2022/01/25 23:08:16;;;;;;;;;;;1.50;99.90;;;;;;5026411;28;19925;-83
2022/01/25 23:10:46;;;;;;;;;;;1.60;99.90;;;;;;5038413;28;20397;-85
2022/01/25 23:13:37;;;;;;;;;;;1.50;99.90;;;;;;5022592;28;20406;-83
2022/01/25 23:16:08;;;;;;;;;;;1.50;99.90;;;;;;5018250;28;20020;-85
2022/01/25 23:18:44;;;;;;;;;;;1.50;99.90;;;;;;5038102;28;19979;-83
2022/01/25 23:21:12;;;;;;;;;;;1.50;99.90;;;;;;5013686;28;19926;-83
2022/01/25 23:23:41;;;;;;;;;;;1.40;99.90;;;;;;5041274;28;19926;-83
2022/01/25 23:26:11;;;;;;;;;;;1.50;99.90;;;;;;5033985;28;19947;-82
2022/01/25 23:28:51;;;;;;;;;;;1.40;99.90;;;;;;5037744;28;20079;-82
2022/01/25 23:31:36;;;;;;;;;;;1.50;99.90;;;;;;5029760;28;19932;-82
2022/01/25 23:34:28;;;;;;;;;;;1.40;99.90;;;;;;5031028;28;19925;-84
2022/01/25 23:37:01;;;;;;;;;;;1.40;99.90;;;;;;5036307;28;20432;-84
2022/01/25 23:39:34;;;;;;;;;;;1.40;99.90;;;;;;5033425;28;19925;-83
2022/01/25 23:42:02;;;;;;;;;;;1.40;99.90;;;;;;5020512;28;19929;-84
2022/01/25 23:44:38;;;;;;;;;;;1.40;99.90;;;;;;5025271;28;19925;-83
2022/01/25 23:47:19;;;;;;;;;;;1.40;99.90;;;;;;5028183;28;19956;-84
2022/01/25 23:49:50;;;;;;;;;;;1.40;99.90;;;;;;5034703;28;19925;-90
2022/01/25 23:58:16;;;;;;;;;;;1.30;99.90;;;;;;5020477;28;19929;-83
